sensor_id;sensor_type;location;lat;lon;timestamp;pressure;altitude;pressure_sealevel;temperature
79228;BMP280;68658;46.174;11.254;2023-05-19T00:00:51;92829.06;;;12.66
79228;BMP280;68658;46.174;11.254;2023-05-19T00:03:17;92825.94;;;12.67
79228;BMP280;68658;46.174;11.254;2023-05-19T00:05:47;92826.69;;;12.62
79228;BMP280;68658;46.174;11.254;2023-05-19T00:08:15;92828.22;;;12.52
79228;BMP280;68658;46.174;11.254;2023-05-19T00:10:41;92824.31;;;12.53
79228;BMP280;68658;46.174;11.254;2023-05-19T00:13:07;92820.91;;;12.64
79228;BMP280;68658;46.174;11.254;2023-05-19T00:15:33;92819.66;;;12.70
79228;BMP280;68658;46.174;11.254;2023-05-19T00:18:01;92818.69;;;12.73
79228;BMP280;68658;46.174;11.254;2023-05-19T00:20:27;92822.97;;;12.76
79228;BMP280;68658;46.174;11.254;2023-05-19T00:22:52;92822.03;;;12.74
79228;BMP280;68658;46.174;11.254;2023-05-19T00:25:17;92826.91;;;12.64
79228;BMP280;68658;46.174;11.254;2023-05-19T00:27:43;92830.78;;;12.63
79228;BMP280;68658;46.174;11.254;2023-05-19T00:30:09;92819.91;;;12.67
79228;BMP280;68658;46.174;11.254;2023-05-19T00:32:34;92831.25;;;12.67
79228;BMP280;68658;46.174;11.254;2023-05-19T00:35:00;92820.19;;;12.63
79228;BMP280;68658;46.174;11.254;2023-05-19T00:37:25;92828.16;;;12.58
79228;BMP280;68658;46.174;11.254;2023-05-19T00:39:51;92827.91;;;12.61
79228;BMP280;68658;46.174;11.254;2023-05-19T00:42:16;92826.94;;;12.59
79228;BMP280;68658;46.174;11.254;2023-05-19T00:44:42;92823.13;;;12.54
79228;BMP280;68658;46.174;11.254;2023-05-19T00:47:07;92817.13;;;12.54
79228;BMP280;68658;46.174;11.254;2023-05-19T00:49:33;92823.19;;;12.49
79228;BMP280;68658;46.174;11.254;2023-05-19T00:52:00;92826.28;;;12.47
79228;BMP280;68658;46.174;11.254;2023-05-19T00:54:27;92814.28;;;12.46
79228;BMP280;68658;46.174;11.254;2023-05-19T00:56:56;92816.88;;;12.52
79228;BMP280;68658;46.174;11.254;2023-05-19T00:59:22;92813.97;;;12.55
79228;BMP280;68658;46.174;11.254;2023-05-19T01:01:48;92814.72;;;12.56
79228;BMP280;68658;46.174;11.254;2023-05-19T01:04:20;92818.56;;;12.55
79228;BMP280;68658;46.174;11.254;2023-05-19T01:06:47;92817.63;;;12.52
79228;BMP280;68658;46.174;11.254;2023-05-19T01:09:22;92811.34;;;12.50
79228;BMP280;68658;46.174;11.254;2023-05-19T01:11:49;92811.63;;;12.46
79228;BMP280;68658;46.174;11.254;2023-05-19T01:14:14;92815.25;;;12.49
79228;BMP280;68658;46.174;11.254;2023-05-19T01:16:58;92813.78;;;12.48
79228;BMP280;68658;46.174;11.254;2023-05-19T01:19:49;92815.00;;;12.47
79228;BMP280;68658;46.174;11.254;2023-05-19T01:30:28;92814.31;;;12.41
79228;BMP280;68658;46.174;11.254;2023-05-19T01:32:59;92815.03;;;12.41
79228;BMP280;68658;46.174;11.254;2023-05-19T01:35:27;92814.59;;;12.37
79228;BMP280;68658;46.174;11.254;2023-05-19T01:37:58;92814.84;;;12.34
79228;BMP280;68658;46.174;11.254;2023-05-19T01:40:25;92807.38;;;12.32
79228;BMP280;68658;46.174;11.254;2023-05-19T01:42:56;92811.22;;;12.32
79228;BMP280;68658;46.174;11.254;2023-05-19T01:45:29;92815.84;;;12.26
79228;BMP280;68658;46.174;11.254;2023-05-19T01:47:58;92823.78;;;12.26
79228;BMP280;68658;46.174;11.254;2023-05-19T01:50:24;92818.72;;;12.28
79228;BMP280;68658;46.174;11.254;2023-05-19T01:52:50;92815.56;;;12.29
79228;BMP280;68658;46.174;11.254;2023-05-19T01:55:16;92820.63;;;12.27
79228;BMP280;68658;46.174;11.254;2023-05-19T02:10:31;92815.81;;;12.31
79228;BMP280;68658;46.174;11.254;2023-05-19T02:13:00;92817.50;;;12.29
79228;BMP280;68658;46.174;11.254;2023-05-19T02:15:33;92817.50;;;12.29
79228;BMP280;68658;46.174;11.254;2023-05-19T02:18:03;92816.31;;;12.30
79228;BMP280;68658;46.174;11.254;2023-05-19T02:22:59;92807.13;;;12.36
79228;BMP280;68658;46.174;11.254;2023-05-19T02:25:24;92812.41;;;12.36
79228;BMP280;68658;46.174;11.254;2023-05-19T02:27:50;92812.19;;;12.34
79228;BMP280;68658;46.174;11.254;2023-05-19T02:30:15;92811.22;;;12.32
79228;BMP280;68658;46.174;11.254;2023-05-19T02:32:41;92818.72;;;12.28
79228;BMP280;68658;46.174;11.254;2023-05-19T02:35:06;92812.22;;;12.29
79228;BMP280;68658;46.174;11.254;2023-05-19T02:37:32;92817.28;;;12.27
79228;BMP280;68658;46.174;11.254;2023-05-19T02:39:58;92815.31;;;12.32
79228;BMP280;68658;46.174;11.254;2023-05-19T02:42:23;92809.75;;;12.36
79228;BMP280;68658;46.174;11.254;2023-05-19T02:44:49;92811.03;;;12.30
79228;BMP280;68658;46.174;11.254;2023-05-19T02:47:14;92816.31;;;12.30
79228;BMP280;68658;46.174;11.254;2023-05-19T02:49:40;92814.88;;;12.23
79228;BMP280;68658;46.174;11.254;2023-05-19T02:52:07;92818.75;;;12.22
79228;BMP280;68658;46.174;11.254;2023-05-19T02:54:33;92810.81;;;12.17
79228;BMP280;68658;46.174;11.254;2023-05-19T02:56:59;92813.25;;;12.15
79228;BMP280;68658;46.174;11.254;2023-05-19T02:59:25;92808.94;;;12.12
79228;BMP280;68658;46.174;11.254;2023-05-19T03:01:54;92815.66;;;12.13
79228;BMP280;68658;46.174;11.254;2023-05-19T03:04:20;92796.63;;;12.20
79228;BMP280;68658;46.174;11.254;2023-05-19T03:06:45;92807.91;;;12.26
79228;BMP280;68658;46.174;11.254;2023-05-19T03:09:12;92804.03;;;12.27
79228;BMP280;68658;46.174;11.254;2023-05-19T03:11:38;92798.31;;;12.23
79228;BMP280;68658;46.174;11.254;2023-05-19T03:14:03;92798.31;;;12.23
79228;BMP280;68658;46.174;11.254;2023-05-19T03:16:29;92803.34;;;12.26
79228;BMP280;68658;46.174;11.254;2023-05-19T03:18:58;92800.69;;;12.26
79228;BMP280;68658;46.174;11.254;2023-05-19T03:21:24;92799.00;;;12.29
79228;BMP280;68658;46.174;11.254;2023-05-19T03:23:49;92795.34;;;12.32
79228;BMP280;68658;46.174;11.254;2023-05-19T03:26:15;92794.91;;;12.28
79228;BMP280;68658;46.174;11.254;2023-05-19T03:28:40;92797.31;;;12.26
79228;BMP280;68658;46.174;11.254;2023-05-19T03:31:06;92802.59;;;12.26
79228;BMP280;68658;46.174;11.254;2023-05-19T03:33:31;92801.66;;;12.23
79228;BMP280;68658;46.174;11.254;2023-05-19T03:35:57;92805.00;;;12.24
79228;BMP280;68658;46.174;11.254;2023-05-19T03:38:23;92806.69;;;12.27
79228;BMP280;68658;46.174;11.254;2023-05-19T03:40:48;92803.78;;;12.30
79228;BMP280;68658;46.174;11.254;2023-05-19T03:43:14;92810.53;;;12.31
79228;BMP280;68658;46.174;11.254;2023-05-19T03:45:40;92806.94;;;12.29
79228;BMP280;68658;46.174;11.254;2023-05-19T03:48:06;92808.38;;;12.30
79228;BMP280;68658;46.174;11.254;2023-05-19T03:50:31;92800.91;;;12.28
79228;BMP280;68658;46.174;11.254;2023-05-19T03:52:58;92807.63;;;12.29
79228;BMP280;68658;46.174;11.254;2023-05-19T03:55:24;92804.75;;;12.27
79228;BMP280;68658;46.174;11.254;2023-05-19T03:57:50;92805.50;;;12.28
79228;BMP280;68658;46.174;11.254;2023-05-19T04:00:17;92808.91;;;12.23
79228;BMP280;68658;46.174;11.254;2023-05-19T04:02:43;92815.16;;;12.20
79228;BMP280;68658;46.174;11.254;2023-05-19T04:05:09;92806.72;;;12.21
79228;BMP280;68658;46.174;11.254;2023-05-19T04:07:35;92821.88;;;12.21
79228;BMP280;68658;46.174;11.254;2023-05-19T04:10:03;92813.00;;;12.18
79228;BMP280;68658;46.174;11.254;2023-05-19T04:12:28;92812.25;;;12.18
79228;BMP280;68658;46.174;11.254;2023-05-19T04:14:54;92806.94;;;12.23
79228;BMP280;68658;46.174;11.254;2023-05-19T04:17:19;92818.75;;;12.22
79228;BMP280;68658;46.174;11.254;2023-05-19T04:19:47;92821.88;;;12.21
79228;BMP280;68658;46.174;11.254;2023-05-19T04:22:13;92812.75;;;12.22
79228;BMP280;68658;46.174;11.254;2023-05-19T04:24:38;92810.31;;;12.24
79228;BMP280;68658;46.174;11.254;2023-05-19T04:27:04;92814.13;;;12.28
79228;BMP280;68658;46.174;11.254;2023-05-19T04:29:29;92817.97;;;12.32
79228;BMP280;68658;46.174;11.254;2023-05-19T04:31:56;92819.91;;;12.32
79228;BMP280;68658;46.174;11.254;2023-05-19T04:34:22;92823.50;;;12.34
79228;BMP280;68658;46.174;11.254;2023-05-19T04:36:47;92830.22;;;12.35
79228;BMP280;68658;46.174;11.254;2023-05-19T04:39:13;92832.88;;;12.35
79228;BMP280;68658;46.174;11.254;2023-05-19T04:41:39;92829.53;;;12.30
79228;BMP280;68658;46.174;11.254;2023-05-19T04:44:06;92835.78;;;12.32
79228;BMP280;68658;46.174;11.254;2023-05-19T04:46:34;92833.13;;;12.32
79228;BMP280;68658;46.174;11.254;2023-05-19T04:48:59;92840.81;;;12.35
79228;BMP280;68658;46.174;11.254;2023-05-19T04:51:26;92840.81;;;12.35
79228;BMP280;68658;46.174;11.254;2023-05-19T04:53:58;92833.31;;;12.39
79228;BMP280;68658;46.174;11.254;2023-05-19T04:56:23;92837.16;;;12.44
79228;BMP280;68658;46.174;11.254;2023-05-19T04:58:49;92838.09;;;12.46
79228;BMP280;68658;46.174;11.254;2023-05-19T05:01:14;92847.22;;;12.51
79228;BMP280;68658;46.174;11.254;2023-05-19T05:03:43;92847.44;;;12.53
79228;BMP280;68658;46.174;11.254;2023-05-19T05:06:08;92835.16;;;12.55
79228;BMP280;68658;46.174;11.254;2023-05-19T05:08:34;92837.56;;;12.53
79228;BMP280;68658;46.174;11.254;2023-05-19T05:11:01;92840.56;;;12.39
79228;BMP280;68658;46.174;11.254;2023-05-19T05:13:27;92846.34;;;12.37
79228;BMP280;68658;46.174;11.254;2023-05-19T05:15:53;92849.47;;;12.36
79228;BMP280;68658;46.174;11.254;2023-05-19T05:18:19;92842.47;;;12.38
79228;BMP280;68658;46.174;11.254;2023-05-19T05:20:45;92836.19;;;12.41
79228;BMP280;68658;46.174;11.254;2023-05-19T05:23:14;92839.09;;;12.43
79228;BMP280;68658;46.174;11.254;2023-05-19T05:25:41;92838.09;;;12.46
79228;BMP280;68658;46.174;11.254;2023-05-19T05:28:06;92829.69;;;12.48
79228;BMP280;68658;46.174;11.254;2023-05-19T05:30:32;92838.31;;;12.48
79228;BMP280;68658;46.174;11.254;2023-05-19T05:32:58;92842.88;;;12.53
79228;BMP280;68658;46.174;11.254;2023-05-19T05:35:24;92842.88;;;12.53
79228;BMP280;68658;46.174;11.254;2023-05-19T05:37:49;92833.44;;;12.58
79228;BMP280;68658;46.174;11.254;2023-05-19T05:40:15;92833.50;;;12.52
79228;BMP280;68658;46.174;11.254;2023-05-19T05:42:41;92841.91;;;12.51
79228;BMP280;68658;46.174;11.254;2023-05-19T05:45:07;92835.41;;;12.52
79228;BMP280;68658;46.174;11.254;2023-05-19T05:47:33;92831.81;;;12.49
79228;BMP280;68658;46.174;11.254;2023-05-19T05:49:59;92829.41;;;12.51
79228;BMP280;68658;46.174;11.254;2023-05-19T05:52:29;92843.84;;;12.50
79228;BMP280;68658;46.174;11.254;2023-05-19T05:54:55;92840.47;;;12.50
79228;BMP280;68658;46.174;11.254;2023-05-19T05:57:21;92834.72;;;12.51
79228;BMP280;68658;46.174;11.254;2023-05-19T05:59:46;92842.88;;;12.53
79228;BMP280;68658;46.174;11.254;2023-05-19T06:02:12;92836.84;;;12.53
79228;BMP280;68658;46.174;11.254;2023-05-19T06:04:37;92838.06;;;12.52
79228;BMP280;68658;46.174;11.254;2023-05-19T06:07:03;92844.53;;;12.56
79228;BMP280;68658;46.174;11.254;2023-05-19T06:09:29;92844.50;;;12.62
79228;BMP280;68658;46.174;11.254;2023-05-19T06:11:57;92844.75;;;12.64
79228;BMP280;68658;46.174;11.254;2023-05-19T06:14:24;92840.13;;;12.70
79228;BMP280;68658;46.174;11.254;2023-05-19T06:16:49;92835.28;;;12.74
79228;BMP280;68658;46.174;11.254;2023-05-19T06:19:15;92837.91;;;12.79
79228;BMP280;68658;46.174;11.254;2023-05-19T06:21:41;92843.41;;;12.87
79228;BMP280;68658;46.174;11.254;2023-05-19T06:24:07;92840.00;;;12.92
79228;BMP280;68658;46.174;11.254;2023-05-19T06:26:32;92844.81;;;12.93
79228;BMP280;68658;46.174;11.254;2023-05-19T06:28:58;92852.94;;;13.01
79228;BMP280;68658;46.174;11.254;2023-05-19T06:31:23;92846.63;;;13.09
79228;BMP280;68658;46.174;11.254;2023-05-19T06:33:51;92849.19;;;13.20
79228;BMP280;68658;46.174;11.254;2023-05-19T06:36:18;92843.34;;;13.27
79228;BMP280;68658;46.174;11.254;2023-05-19T06:38:43;92843.78;;;13.31
79228;BMP280;68658;46.174;11.254;2023-05-19T06:41:09;92836.75;;;13.33
79228;BMP280;68658;46.174;11.254;2023-05-19T06:43:34;92833.91;;;13.31
79228;BMP280;68658;46.174;11.254;2023-05-19T06:46:00;92846.47;;;13.25
79228;BMP280;68658;46.174;11.254;2023-05-19T06:48:25;92844.50;;;13.31
79228;BMP280;68658;46.174;11.254;2023-05-19T06:50:51;92849.75;;;13.37
79228;BMP280;68658;46.174;11.254;2023-05-19T06:53:18;92843.41;;;13.45
79228;BMP280;68658;46.174;11.254;2023-05-19T06:55:44;92846.69;;;13.57
79228;BMP280;68658;46.174;11.254;2023-05-19T06:58:10;92846.47;;;13.55
79228;BMP280;68658;46.174;11.254;2023-05-19T07:00:35;92846.34;;;13.42
79228;BMP280;68658;46.174;11.254;2023-05-19T07:03:01;92848.09;;;13.34
79228;BMP280;68658;46.174;11.254;2023-05-19T07:05:27;92847.09;;;13.37
79228;BMP280;68658;46.174;11.254;2023-05-19T07:07:52;92849.03;;;13.36
79228;BMP280;68658;46.174;11.254;2023-05-19T07:10:18;92847.59;;;13.35
79228;BMP280;68658;46.174;11.254;2023-05-19T07:12:45;92846.28;;;13.47
79228;BMP280;68658;46.174;11.254;2023-05-19T07:15:11;92853.25;;;13.50
79228;BMP280;68658;46.174;11.254;2023-05-19T07:17:36;92854.56;;;13.62
79228;BMP280;68658;46.174;11.254;2023-05-19T07:20:02;92846.22;;;13.77
79228;BMP280;68658;46.174;11.254;2023-05-19T07:22:30;92848.00;;;13.92
79228;BMP280;68658;46.174;11.254;2023-05-19T07:24:59;92849.00;;;14.13
79228;BMP280;68658;46.174;11.254;2023-05-19T07:27:25;92848.88;;;14.24
79228;BMP280;68658;46.174;11.254;2023-05-19T07:29:50;92848.50;;;14.33
79228;BMP280;68658;46.174;11.254;2023-05-19T07:32:19;92841.34;;;14.47
79228;BMP280;68658;46.174;11.254;2023-05-19T07:34:44;92845.38;;;14.53
79228;BMP280;68658;46.174;11.254;2023-05-19T07:37:10;92849.94;;;14.71
79228;BMP280;68658;46.174;11.254;2023-05-19T07:39:35;92850.38;;;14.75
79228;BMP280;68658;46.174;11.254;2023-05-19T07:42:01;92842.69;;;14.90
79228;BMP280;68658;46.174;11.254;2023-05-19T07:44:26;92844.88;;;14.86
79228;BMP280;68658;46.174;11.254;2023-05-19T07:46:53;92836.81;;;14.78
79228;BMP280;68658;46.174;11.254;2023-05-19T07:49:18;92836.88;;;14.73
79228;BMP280;68658;46.174;11.254;2023-05-19T07:51:44;92834.16;;;14.60
79228;BMP280;68658;46.174;11.254;2023-05-19T07:54:10;92830.66;;;14.52
79228;BMP280;68658;46.174;11.254;2023-05-19T07:56:36;92832.78;;;14.35
79228;BMP280;68658;46.174;11.254;2023-05-19T07:59:02;92829.91;;;14.33
79228;BMP280;68658;46.174;11.254;2023-05-19T08:01:29;92834.16;;;14.42
79228;BMP280;68658;46.174;11.254;2023-05-19T08:03:54;92831.34;;;14.53
79228;BMP280;68658;46.174;11.254;2023-05-19T08:06:23;92828.84;;;14.60
79228;BMP280;68658;46.174;11.254;2023-05-19T08:08:49;92835.13;;;14.75
79228;BMP280;68658;46.174;11.254;2023-05-19T08:11:15;92833.25;;;14.89
79228;BMP280;68658;46.174;11.254;2023-05-19T08:13:40;92836.13;;;14.91
79228;BMP280;68658;46.174;11.254;2023-05-19T08:16:06;92833.84;;;14.82
79228;BMP280;68658;46.174;11.254;2023-05-19T08:18:31;92834.06;;;14.84
79228;BMP280;68658;46.174;11.254;2023-05-19T08:20:57;92834.66;;;14.77
79228;BMP280;68658;46.174;11.254;2023-05-19T08:23:23;92825.03;;;14.74
79228;BMP280;68658;46.174;11.254;2023-05-19T08:25:48;92825.44;;;14.78
79228;BMP280;68658;46.174;11.254;2023-05-19T08:28:14;92826.09;;;14.84
79228;BMP280;68658;46.174;11.254;2023-05-19T08:30:40;92818.91;;;14.79
79228;BMP280;68658;46.174;11.254;2023-05-19T08:33:05;92828.25;;;14.67
79228;BMP280;68658;46.174;11.254;2023-05-19T08:35:31;92820.53;;;14.69
79228;BMP280;68658;46.174;11.254;2023-05-19T08:37:56;92828.63;;;14.58
79228;BMP280;68658;46.174;11.254;2023-05-19T08:40:22;92817.94;;;14.64
79228;BMP280;68658;46.174;11.254;2023-05-19T08:42:47;92829.72;;;14.50
79228;BMP280;68658;46.174;11.254;2023-05-19T08:45:13;92823.03;;;14.43
79228;BMP280;68658;46.174;11.254;2023-05-19T08:47:45;92819.56;;;14.48
79228;BMP280;68658;46.174;11.254;2023-05-19T08:50:12;92820.81;;;14.47
79228;BMP280;68658;46.174;11.254;2023-05-19T08:57:42;92822.22;;;14.48
79228;BMP280;68658;46.174;11.254;2023-05-19T09:00:08;92829.63;;;14.55
79228;BMP280;68658;46.174;11.254;2023-05-19T09:02:37;92826.59;;;14.64
79228;BMP280;68658;46.174;11.254;2023-05-19T09:05:03;92824.50;;;14.75
79228;BMP280;68658;46.174;11.254;2023-05-19T09:07:30;92828.53;;;14.82
79228;BMP280;68658;46.174;11.254;2023-05-19T09:09:59;92823.78;;;14.93
79228;BMP280;68658;46.174;11.254;2023-05-19T09:12:26;92830.06;;;15.09
79228;BMP280;68658;46.174;11.254;2023-05-19T09:14:51;92829.28;;;15.14
79228;BMP280;68658;46.174;11.254;2023-05-19T09:17:17;92827.88;;;15.26
79228;BMP280;68658;46.174;11.254;2023-05-19T09:19:46;92820.13;;;15.28
79228;BMP280;68658;46.174;11.254;2023-05-19T09:22:15;92821.25;;;15.32
79228;BMP280;68658;46.174;11.254;2023-05-19T09:24:43;92822.13;;;15.22
79228;BMP280;68658;46.174;11.254;2023-05-19T09:27:09;92817.03;;;15.24
79228;BMP280;68658;46.174;11.254;2023-05-19T09:29:34;92812.00;;;15.20
79228;BMP280;68658;46.174;11.254;2023-05-19T09:32:00;92812.44;;;15.24
79228;BMP280;68658;46.174;11.254;2023-05-19T09:34:29;92813.91;;;15.07
79228;BMP280;68658;46.174;11.254;2023-05-19T09:36:54;92826.22;;;14.91
79228;BMP280;68658;46.174;11.254;2023-05-19T09:39:22;92829.38;;;14.90
79228;BMP280;68658;46.174;11.254;2023-05-19T09:41:54;92830.97;;;14.80
79228;BMP280;68658;46.174;11.254;2023-05-19T09:44:23;92833.28;;;14.70
79228;BMP280;68658;46.174;11.254;2023-05-19T09:46:53;92831.78;;;14.75
79228;BMP280;68658;46.174;11.254;2023-05-19T09:49:23;92823.63;;;14.86
79228;BMP280;68658;46.174;11.254;2023-05-19T09:51:53;92826.72;;;14.90
79228;BMP280;68658;46.174;11.254;2023-05-19T09:54:20;92821.44;;;15.03
79228;BMP280;68658;46.174;11.254;2023-05-19T09:56:55;92816.44;;;14.99
79228;BMP280;68658;46.174;11.254;2023-05-19T09:59:23;92820.22;;;15.04
79228;BMP280;68658;46.174;11.254;2023-05-19T10:01:55;92816.25;;;15.29
79228;BMP280;68658;46.174;11.254;2023-05-19T10:04:26;92815.13;;;15.50
79228;BMP280;68658;46.174;11.254;2023-05-19T10:06:52;92812.91;;;15.67
79228;BMP280;68658;46.174;11.254;2023-05-19T10:09:21;92813.56;;;15.86
79228;BMP280;68658;46.174;11.254;2023-05-19T10:11:51;92811.59;;;15.73
79228;BMP280;68658;46.174;11.254;2023-05-19T10:14:18;92817.94;;;15.83
79228;BMP280;68658;46.174;11.254;2023-05-19T10:16:44;92811.16;;;15.69
79228;BMP280;68658;46.174;11.254;2023-05-19T10:19:11;92804.09;;;15.72
79228;BMP280;68658;46.174;11.254;2023-05-19T10:21:38;92809.44;;;15.98
79228;BMP280;68658;46.174;11.254;2023-05-19T10:24:03;92812.09;;;15.98
79228;BMP280;68658;46.174;11.254;2023-05-19T10:26:29;92813.44;;;16.04
79228;BMP280;68658;46.174;11.254;2023-05-19T10:28:56;92812.59;;;15.83
79228;BMP280;68658;46.174;11.254;2023-05-19T10:31:22;92817.44;;;15.85
79228;BMP280;68658;46.174;11.254;2023-05-19T10:34:25;92819.28;;;15.90
79228;BMP280;68658;46.174;11.254;2023-05-19T10:39:33;92820.78;;;16.24
79228;BMP280;68658;46.174;11.254;2023-05-19T10:42:37;92820.09;;;16.36
79228;BMP280;68658;46.174;11.254;2023-05-19T10:45:21;92815.41;;;16.50
79228;BMP280;68658;46.174;11.254;2023-05-19T10:47:48;92811.19;;;16.67
79228;BMP280;68658;46.174;11.254;2023-05-19T10:50:14;92810.97;;;16.99
79228;BMP280;68658;46.174;11.254;2023-05-19T10:52:40;92815.19;;;16.94
79228;BMP280;68658;46.174;11.254;2023-05-19T10:55:11;92823.56;;;16.78
79228;BMP280;68658;46.174;11.254;2023-05-19T10:58:01;92813.75;;;16.60
79228;BMP280;68658;46.174;11.254;2023-05-19T11:00:30;92813.38;;;16.56
79228;BMP280;68658;46.174;11.254;2023-05-19T11:03:35;92811.78;;;16.14
79228;BMP280;68658;46.174;11.254;2023-05-19T11:06:16;92817.72;;;16.33
79228;BMP280;68658;46.174;11.254;2023-05-19T11:08:42;92810.50;;;16.54
79228;BMP280;68658;46.174;11.254;2023-05-19T11:11:18;92811.22;;;16.54
79228;BMP280;68658;46.174;11.254;2023-05-19T11:13:51;92812.38;;;16.20
79228;BMP280;68658;46.174;11.254;2023-05-19T11:16:27;92811.28;;;16.03
79228;BMP280;68658;46.174;11.254;2023-05-19T11:18:59;92810.34;;;16.13
79228;BMP280;68658;46.174;11.254;2023-05-19T11:21:47;92812.19;;;16.05
79228;BMP280;68658;46.174;11.254;2023-05-19T11:26:57;92801.63;;;16.38
79228;BMP280;68658;46.174;11.254;2023-05-19T11:29:22;92802.19;;;16.91
79228;BMP280;68658;46.174;11.254;2023-05-19T11:31:48;92797.06;;;17.33
79228;BMP280;68658;46.174;11.254;2023-05-19T11:34:16;92795.88;;;17.21
79228;BMP280;68658;46.174;11.254;2023-05-19T11:36:41;92803.22;;;18.25
79228;BMP280;68658;46.174;11.254;2023-05-19T11:39:08;92802.41;;;18.45
79228;BMP280;68658;46.174;11.254;2023-05-19T11:41:38;92785.94;;;18.26
79228;BMP280;68658;46.174;11.254;2023-05-19T11:44:09;92797.84;;;17.41
79228;BMP280;68658;46.174;11.254;2023-05-19T11:46:35;92793.44;;;17.23
79228;BMP280;68658;46.174;11.254;2023-05-19T11:49:00;92787.69;;;17.19
79228;BMP280;68658;46.174;11.254;2023-05-19T11:51:26;92789.47;;;17.37
79228;BMP280;68658;46.174;11.254;2023-05-19T11:53:52;92778.72;;;17.09
79228;BMP280;68658;46.174;11.254;2023-05-19T11:56:19;92785.69;;;17.12
79228;BMP280;68658;46.174;11.254;2023-05-19T11:58:45;92784.66;;;16.62
79228;BMP280;68658;46.174;11.254;2023-05-19T12:01:11;92786.97;;;16.78
79228;BMP280;68658;46.174;11.254;2023-05-19T12:03:36;92781.03;;;16.72
79228;BMP280;68658;46.174;11.254;2023-05-19T12:06:02;92792.28;;;16.45
79228;BMP280;68658;46.174;11.254;2023-05-19T12:08:29;92781.25;;;16.41
79228;BMP280;68658;46.174;11.254;2023-05-19T12:10:57;92785.56;;;16.18
79228;BMP280;68658;46.174;11.254;2023-05-19T12:13:24;92785.38;;;16.03
79228;BMP280;68658;46.174;11.254;2023-05-19T12:15:50;92789.03;;;16.13
79228;BMP280;68658;46.174;11.254;2023-05-19T12:18:16;92782.84;;;16.57
79228;BMP280;68658;46.174;11.254;2023-05-19T12:20:43;92777.84;;;16.40
79228;BMP280;68658;46.174;11.254;2023-05-19T12:23:09;92778.75;;;16.56
79228;BMP280;68658;46.174;11.254;2023-05-19T12:25:35;92782.38;;;16.66
79228;BMP280;68658;46.174;11.254;2023-05-19T12:28:00;92788.19;;;16.57
79228;BMP280;68658;46.174;11.254;2023-05-19T12:30:28;92786.25;;;16.44
79228;BMP280;68658;46.174;11.254;2023-05-19T12:32:57;92779.22;;;16.88
79228;BMP280;68658;46.174;11.254;2023-05-19T12:35:31;92776.38;;;16.86
79228;BMP280;68658;46.174;11.254;2023-05-19T12:38:06;92774.91;;;17.38
79228;BMP280;68658;46.174;11.254;2023-05-19T12:40:33;92776.13;;;17.37
79228;BMP280;68658;46.174;11.254;2023-05-19T12:42:58;92778.66;;;17.02
79228;BMP280;68658;46.174;11.254;2023-05-19T12:45:24;92770.91;;;17.11
79228;BMP280;68658;46.174;11.254;2023-05-19T12:47:52;92778.84;;;17.24
79228;BMP280;68658;46.174;11.254;2023-05-19T12:50:18;92772.06;;;16.83
79228;BMP280;68658;46.174;11.254;2023-05-19T12:52:50;92774.53;;;16.81
79228;BMP280;68658;46.174;11.254;2023-05-19T12:55:16;92766.38;;;16.79
79228;BMP280;68658;46.174;11.254;2023-05-19T12:57:51;92774.75;;;16.49
79228;BMP280;68658;46.174;11.254;2023-05-19T13:00:23;92761.34;;;16.75
79228;BMP280;68658;46.174;11.254;2023-05-19T13:05:31;92765.28;;;16.61
79228;BMP280;68658;46.174;11.254;2023-05-19T13:08:12;92771.78;;;16.53
79228;BMP280;68658;46.174;11.254;2023-05-19T13:10:40;92766.28;;;16.38
79228;BMP280;68658;46.174;11.254;2023-05-19T13:13:06;92767.34;;;16.55
79228;BMP280;68658;46.174;11.254;2023-05-19T13:15:33;92763.34;;;16.62
79228;BMP280;68658;46.174;11.254;2023-05-19T13:18:00;92758.78;;;16.49
79228;BMP280;68658;46.174;11.254;2023-05-19T13:20:26;92760.72;;;16.82
79228;BMP280;68658;46.174;11.254;2023-05-19T13:22:52;92764.41;;;17.00
79228;BMP280;68658;46.174;11.254;2023-05-19T13:25:18;92762.41;;;17.33
79228;BMP280;68658;46.174;11.254;2023-05-19T13:27:44;92759.72;;;17.33
79228;BMP280;68658;46.174;11.254;2023-05-19T13:30:10;92755.00;;;16.99
79228;BMP280;68658;46.174;11.254;2023-05-19T13:32:36;92753.03;;;16.99
79228;BMP280;68658;46.174;11.254;2023-05-19T13:35:02;92759.47;;;16.50
79228;BMP280;68658;46.174;11.254;2023-05-19T13:37:27;92766.78;;;16.49
79228;BMP280;68658;46.174;11.254;2023-05-19T13:39:53;92764.22;;;16.44
79228;BMP280;68658;46.174;11.254;2023-05-19T13:42:19;92759.03;;;16.59
79228;BMP280;68658;46.174;11.254;2023-05-19T13:44:45;92750.47;;;16.53
79228;BMP280;68658;46.174;11.254;2023-05-19T13:47:11;92756.03;;;16.42
79228;BMP280;68658;46.174;11.254;2023-05-19T13:49:37;92757.69;;;16.65
79228;BMP280;68658;46.174;11.254;2023-05-19T13:52:03;92751.56;;;16.57
79228;BMP280;68658;46.174;11.254;2023-05-19T13:54:29;92754.84;;;16.63
79228;BMP280;68658;46.174;11.254;2023-05-19T13:56:54;92763.00;;;16.45
79228;BMP280;68658;46.174;11.254;2023-05-19T13:59:19;92751.31;;;16.48
79228;BMP280;68658;46.174;11.254;2023-05-19T14:01:48;92760.38;;;16.19
79228;BMP280;68658;46.174;11.254;2023-05-19T14:04:16;92757.78;;;16.26
79228;BMP280;68658;46.174;11.254;2023-05-19T14:06:42;92759.53;;;16.24
79228;BMP280;68658;46.174;11.254;2023-05-19T14:09:08;92757.06;;;16.39
79228;BMP280;68658;46.174;11.254;2023-05-19T14:11:33;92753.31;;;16.22
79228;BMP280;68658;46.174;11.254;2023-05-19T14:13:59;92753.81;;;16.07
79228;BMP280;68658;46.174;11.254;2023-05-19T14:16:24;92745.41;;;16.16
79228;BMP280;68658;46.174;11.254;2023-05-19T14:18:51;92752.00;;;16.02
79228;BMP280;68658;46.174;11.254;2023-05-19T14:21:16;92756.31;;;15.79
79228;BMP280;68658;46.174;11.254;2023-05-19T14:23:45;92757.97;;;15.69
79228;BMP280;68658;46.174;11.254;2023-05-19T14:26:11;92749.28;;;15.56
79228;BMP280;68658;46.174;11.254;2023-05-19T14:28:36;92749.69;;;15.60
79228;BMP280;68658;46.174;11.254;2023-05-19T14:31:02;92751.91;;;15.43
79228;BMP280;68658;46.174;11.254;2023-05-19T14:33:28;92747.84;;;15.55